TAF KPEQ
KPEQ 280521Z 2806/2906 30007KT P6SM SCT070 BKN100 FM281000 35008KT P6SM SKC FM281700 06005KT P6SM SKC FM290100 19004KT P6SM SKC=
METAR KPEQ
WC KPEQ
WS KPEQ
WV KPEQ